createdAt,value
2017-05-06T00:02:06.569Z,9.80
2017-05-06T00:04:35.454Z,9.70
2017-05-06T00:07:04.374Z,9.80
2017-05-06T00:09:33.253Z,9.70
2017-05-06T00:12:02.128Z,9.70
2017-05-06T00:14:31.046Z,9.60
2017-05-06T00:16:59.921Z,9.60
2017-05-06T00:19:28.803Z,9.60
2017-05-06T00:21:57.802Z,9.60
2017-05-06T00:24:26.681Z,9.60
2017-05-06T00:26:55.560Z,9.60
2017-05-06T00:29:24.476Z,9.60
2017-05-06T00:31:53.359Z,9.60
2017-05-06T00:34:22.230Z,9.50
2017-05-06T00:36:51.152Z,9.50
2017-05-06T00:39:20.033Z,9.50
2017-05-06T00:41:48.910Z,9.40
2017-05-06T00:44:17.921Z,9.50
2017-05-06T00:46:46.801Z,9.40
2017-05-06T00:49:15.688Z,9.40
2017-05-06T00:51:44.608Z,9.40
2017-05-06T00:54:13.484Z,9.30
2017-05-06T00:56:42.371Z,9.30
2017-05-06T00:59:11.488Z,9.40
2017-05-06T01:01:41.115Z,9.30
2017-05-06T01:04:10.858Z,9.30
2017-05-06T01:06:39.732Z,9.40
2017-05-06T01:09:08.613Z,9.40
2017-05-06T01:11:37.529Z,9.40
2017-05-06T01:14:06.405Z,9.50
2017-05-06T01:16:35.281Z,9.40
2017-05-06T01:19:04.204Z,9.50
2017-05-06T01:21:33.083Z,9.50
2017-05-06T01:24:01.957Z,9.50
2017-05-06T01:26:30.874Z,9.40
2017-05-06T01:28:59.747Z,9.30
2017-05-06T01:31:28.617Z,9.30
2017-05-06T01:33:58.256Z,9.30
2017-05-06T01:36:27.165Z,9.20
2017-05-06T01:38:56.079Z,9.20
2017-05-06T01:41:24.955Z,9.20
2017-05-06T01:43:53.834Z,9.10
2017-05-06T01:46:22.777Z,9.00
2017-05-06T01:48:51.673Z,9.00
2017-05-06T01:51:21.305Z,9.00
2017-05-06T01:53:50.468Z,9.00
2017-05-06T01:56:20.098Z,9.00
2017-05-06T01:58:48.991Z,8.90
2017-05-06T02:01:18.002Z,8.80
2017-05-06T02:03:46.885Z,8.80
2017-05-06T02:06:15.766Z,8.80
2017-05-06T02:08:44.688Z,8.80
2017-05-06T02:11:13.600Z,8.70
2017-05-06T02:13:42.485Z,8.70
2017-05-06T02:16:11.608Z,8.70
2017-05-06T02:18:41.230Z,8.60
2017-05-06T02:21:10.848Z,8.70
2017-05-06T02:23:39.769Z,8.80
2017-05-06T02:26:08.641Z,8.90
2017-05-06T02:28:37.514Z,8.90
2017-05-06T02:31:06.417Z,8.80
2017-05-06T02:33:35.429Z,8.80
2017-05-06T02:36:04.310Z,8.70
2017-05-06T02:38:33.187Z,8.60
2017-05-06T02:41:02.098Z,8.50
2017-05-06T02:43:30.978Z,8.50
2017-05-06T02:45:59.857Z,8.40
2017-05-06T02:48:28.769Z,8.40
2017-05-06T02:50:57.677Z,8.30
2017-05-06T02:53:26.554Z,8.30
2017-05-06T02:55:55.458Z,8.30
2017-05-06T02:58:24.641Z,8.30
2017-05-06T03:00:53.520Z,8.40
2017-05-06T03:03:22.395Z,8.40
2017-05-06T03:05:51.339Z,8.40
2017-05-06T03:08:20.209Z,8.40
2017-05-06T03:10:49.096Z,8.30
2017-05-06T03:13:18.211Z,8.30
2017-05-06T03:15:47.079Z,8.30
2017-05-06T03:18:15.956Z,8.20
2017-05-06T03:20:44.868Z,8.20
2017-05-06T03:23:13.749Z,8.20
2017-05-06T03:25:42.620Z,8.20
2017-05-06T03:28:11.624Z,8.10
2017-05-06T03:30:40.505Z,8.10
2017-05-06T03:33:09.377Z,8.00
2017-05-06T03:35:39.328Z,8.10
2017-05-06T03:38:08.204Z,8.10
2017-05-06T03:40:37.078Z,8.10
2017-05-06T03:43:07.025Z,8.00
2017-05-06T03:45:35.898Z,8.00
2017-05-06T03:48:04.768Z,7.90
2017-05-06T03:50:34.408Z,7.90
2017-05-06T03:53:03.286Z,7.90
2017-05-06T03:55:32.198Z,7.90
2017-05-06T03:58:01.074Z,8.00
2017-05-06T04:00:29.951Z,8.10
2017-05-06T04:02:58.859Z,8.10
2017-05-06T04:05:27.732Z,8.20
2017-05-06T04:07:56.628Z,8.20
2017-05-06T04:10:25.537Z,8.20
2017-05-06T04:12:54.413Z,8.30
2017-05-06T04:15:23.286Z,8.30
2017-05-06T04:17:52.949Z,8.40
2017-05-06T04:20:21.839Z,8.40
2017-05-06T04:22:50.718Z,8.40
2017-05-06T04:25:19.633Z,8.40
2017-05-06T04:27:48.513Z,8.40
2017-05-06T04:30:17.393Z,8.40
2017-05-06T04:32:46.302Z,8.40
2017-05-06T04:35:15.186Z,8.60
2017-05-06T04:37:44.076Z,8.60
2017-05-06T04:40:12.981Z,8.60
2017-05-06T04:42:41.858Z,8.60
2017-05-06T04:45:10.733Z,8.70
2017-05-06T04:47:39.736Z,8.80
2017-05-06T04:50:08.612Z,8.90
2017-05-06T04:52:37.488Z,8.90
2017-05-06T04:55:06.392Z,8.90
2017-05-06T04:57:35.270Z,8.90
2017-05-06T05:00:04.148Z,9.00
2017-05-06T05:02:33.065Z,9.10
2017-05-06T05:05:01.948Z,9.20
2017-05-06T05:07:30.827Z,9.20
2017-05-06T05:09:59.732Z,9.40
2017-05-06T05:12:28.606Z,9.50
2017-05-06T05:14:57.612Z,9.60
2017-05-06T05:17:26.490Z,9.70
2017-05-06T05:19:55.370Z,9.70
2017-05-06T05:22:24.286Z,9.70
2017-05-06T05:24:53.165Z,9.80
2017-05-06T05:27:22.040Z,9.80
2017-05-06T05:29:50.955Z,9.90
2017-05-06T05:32:19.872Z,10.00
2017-05-06T05:34:48.797Z,10.00
2017-05-06T05:37:18.441Z,10.20
2017-05-06T05:39:47.421Z,10.30
2017-05-06T05:42:17.054Z,10.30
2017-05-06T05:44:46.072Z,10.40
2017-05-06T05:47:15.022Z,10.40
2017-05-06T05:49:43.973Z,10.50
2017-05-06T05:52:12.860Z,10.50
2017-05-06T05:54:41.857Z,10.50
2017-05-06T05:57:11.105Z,10.50
2017-05-06T05:59:39.976Z,10.60
2017-05-06T06:02:08.858Z,10.60
2017-05-06T06:04:37.893Z,10.70
2017-05-06T06:07:06.770Z,10.70
2017-05-06T06:09:35.658Z,10.70
2017-05-06T06:12:04.665Z,10.80
2017-05-06T06:14:33.537Z,10.90
2017-05-06T06:17:02.415Z,10.90
2017-05-06T06:19:32.057Z,10.90
2017-05-06T06:22:00.933Z,11.00
2017-05-06T06:24:29.842Z,11.00
2017-05-06T06:26:58.721Z,11.10
2017-05-06T06:29:27.641Z,11.20
2017-05-06T06:31:56.526Z,11.30
2017-05-06T06:34:25.402Z,11.30
2017-05-06T06:36:54.421Z,11.40
2017-05-06T06:39:23.333Z,11.50
2017-05-06T06:41:52.205Z,11.50
2017-05-06T06:44:21.224Z,11.60
2017-05-06T06:46:50.112Z,11.70
2017-05-06T06:49:18.985Z,11.90
2017-05-06T06:51:48.028Z,11.90
2017-05-06T06:54:16.901Z,11.90
2017-05-06T06:56:45.785Z,11.90
2017-05-06T06:59:15.445Z,12.00
2017-05-06T07:01:44.325Z,12.00
2017-05-06T07:04:13.205Z,12.10
2017-05-06T07:06:42.128Z,12.10
2017-05-06T07:09:11.006Z,12.20
2017-05-06T07:11:39.881Z,12.20
2017-05-06T07:14:08.793Z,12.30
2017-05-06T07:16:37.673Z,12.40
2017-05-06T07:19:06.545Z,12.50
2017-05-06T07:21:35.752Z,12.50
2017-05-06T07:24:04.661Z,12.50
2017-05-06T07:26:33.541Z,12.60
2017-05-06T07:29:02.738Z,12.60
2017-05-06T07:31:31.623Z,12.70
2017-05-06T07:34:00.504Z,12.70
2017-05-06T07:36:29.510Z,12.80
2017-05-06T07:38:58.427Z,12.90
2017-05-06T07:41:27.304Z,12.90
2017-05-06T07:43:56.232Z,13.00
2017-05-06T07:46:25.110Z,13.10
2017-05-06T07:48:54.119Z,13.10
2017-05-06T07:51:23.745Z,13.30
2017-05-06T07:53:53.366Z,13.30
2017-05-06T07:56:22.265Z,13.40
2017-05-06T07:58:51.180Z,13.50
2017-05-06T08:01:20.063Z,13.70
2017-05-06T08:03:48.937Z,13.80
2017-05-06T08:06:17.858Z,14.00
2017-05-06T08:08:46.751Z,14.10
2017-05-06T08:11:15.645Z,14.20
2017-05-06T08:13:44.561Z,14.20
2017-05-06T08:16:14.189Z,14.30
2017-05-06T08:18:43.805Z,14.40
2017-05-06T08:21:12.933Z,14.50
2017-05-06T08:23:41.815Z,14.60
2017-05-06T08:26:10.701Z,14.70
2017-05-06T08:28:39.597Z,14.70
2017-05-06T08:31:08.472Z,14.70
2017-05-06T08:33:37.681Z,14.80
2017-05-06T08:36:06.557Z,14.90
2017-05-06T08:38:35.440Z,15.30
2017-05-06T08:41:04.797Z,15.50
2017-05-06T08:43:33.665Z,15.70
2017-05-06T08:46:02.848Z,15.80
2017-05-06T08:48:31.720Z,15.90
2017-05-06T08:51:00.598Z,16.00
2017-05-06T08:53:30.234Z,16.00
2017-05-06T08:55:59.117Z,16.00
2017-05-06T08:58:28.021Z,16.00
2017-05-06T09:00:56.907Z,16.10
2017-05-06T09:03:25.767Z,16.30
2017-05-06T09:05:55.709Z,16.40
2017-05-06T09:08:24.593Z,16.40
2017-05-06T09:10:53.468Z,16.50
2017-05-06T09:13:23.208Z,16.50
2017-05-06T09:15:52.085Z,16.60
2017-05-06T09:18:20.984Z,16.90
2017-05-06T09:20:50.597Z,16.90
2017-05-06T09:23:19.513Z,16.90
2017-05-06T09:25:48.385Z,17.00
2017-05-06T09:28:17.257Z,16.90
2017-05-06T09:30:46.162Z,17.00
2017-05-06T09:33:15.036Z,17.10
2017-05-06T09:35:43.934Z,17.20
2017-05-06T09:38:12.814Z,17.20
2017-05-06T09:40:41.732Z,17.40
2017-05-06T09:43:10.597Z,17.50
2017-05-06T09:45:39.473Z,17.70
2017-05-06T09:48:09.116Z,17.80
2017-05-06T09:50:37.997Z,18.00
2017-05-06T09:53:06.869Z,18.20
2017-05-06T09:55:35.792Z,18.30
2017-05-06T09:58:04.668Z,18.30
2017-05-06T10:00:33.536Z,18.40
2017-05-06T10:03:02.457Z,18.50
2017-05-06T10:05:31.328Z,18.50
2017-05-06T10:08:00.211Z,18.50
2017-05-06T10:10:29.860Z,18.50
2017-05-06T10:12:58.732Z,18.50
2017-05-06T10:15:27.609Z,18.50
2017-05-06T10:17:56.538Z,18.60
2017-05-06T10:20:25.412Z,18.80
2017-05-06T10:22:54.315Z,18.90
2017-05-06T10:25:23.221Z,19.00
2017-05-06T10:27:52.098Z,19.30
2017-05-06T10:30:20.976Z,19.40
2017-05-06T10:32:49.876Z,19.60
2017-05-06T10:35:18.750Z,19.60
2017-05-06T10:37:47.629Z,19.70
2017-05-06T10:40:16.531Z,19.80
2017-05-06T10:42:45.408Z,19.90
2017-05-06T10:45:14.319Z,20.00
2017-05-06T10:47:43.194Z,20.10
2017-05-06T10:50:12.065Z,20.30
2017-05-06T10:52:41.719Z,20.60
2017-05-06T10:55:10.594Z,20.90
2017-05-06T10:57:39.464Z,21.20
2017-05-06T11:00:08.388Z,21.30
2017-05-06T11:02:37.262Z,21.30
2017-05-06T11:05:06.130Z,21.40
2017-05-06T11:07:35.350Z,21.50
2017-05-06T11:10:04.219Z,21.70
2017-05-06T11:12:33.092Z,21.70
2017-05-06T11:15:02.757Z,21.60
2017-05-06T11:17:31.627Z,21.60
2017-05-06T11:20:00.501Z,21.60
2017-05-06T11:22:29.720Z,22.00
2017-05-06T11:24:58.593Z,22.00
2017-05-06T11:27:27.465Z,22.00
2017-05-06T11:29:57.108Z,22.20
2017-05-06T11:32:25.981Z,22.70
2017-05-06T11:34:54.892Z,22.80
2017-05-06T11:37:23.764Z,23.00
2017-05-06T11:39:52.641Z,23.20
2017-05-06T11:42:22.390Z,23.40
2017-05-06T11:44:51.255Z,23.60
2017-05-06T11:47:20.135Z,23.20
2017-05-06T11:49:49.788Z,23.00
2017-05-06T11:52:18.661Z,23.20
2017-05-06T11:54:47.533Z,23.30
2017-05-06T11:57:16.457Z,23.40
2017-05-06T11:59:45.328Z,23.40
2017-05-06T12:02:14.206Z,23.60
2017-05-06T12:04:43.122Z,23.70
2017-05-06T12:07:11.997Z,23.80
2017-05-06T12:09:40.869Z,24.20
2017-05-06T12:12:10.523Z,24.60
2017-05-06T12:14:39.403Z,25.10
2017-05-06T12:17:08.284Z,25.30
2017-05-06T12:19:37.181Z,25.40
2017-05-06T12:22:06.063Z,25.20
2017-05-06T12:24:34.976Z,25.50
2017-05-06T12:27:03.856Z,27.70
2017-05-06T12:29:32.725Z,29.30
2017-05-06T12:32:01.633Z,30.30
2017-05-06T12:34:30.518Z,31.40
2017-05-06T12:36:59.392Z,31.90
2017-05-06T12:39:28.524Z,32.10
2017-05-06T12:41:57.412Z,33.40
2017-05-06T12:44:26.279Z,34.20
2017-05-06T12:46:55.481Z,36.20
2017-05-06T12:49:24.362Z,37.10
2017-05-06T12:51:53.230Z,37.20
2017-05-06T12:54:22.868Z,37.30
2017-05-06T12:56:51.773Z,37.00
2017-05-06T12:59:20.749Z,37.40
2017-05-06T13:01:49.621Z,36.50
2017-05-06T13:04:19.230Z,35.70
2017-05-06T13:06:48.151Z,34.00
2017-05-06T13:09:17.030Z,31.80
2017-05-06T13:11:45.905Z,30.50
2017-05-06T13:14:14.900Z,30.00
2017-05-06T13:16:43.781Z,31.30
2017-05-06T13:19:13.392Z,34.00
2017-05-06T13:21:42.293Z,35.80
2017-05-06T13:24:11.173Z,37.60
2017-05-06T13:26:40.086Z,37.50
2017-05-06T13:29:08.956Z,37.60
2017-05-06T13:31:37.828Z,37.60
2017-05-06T13:34:07.481Z,36.70
2017-05-06T13:36:36.348Z,35.30
2017-05-06T13:39:05.220Z,32.50
2017-05-06T13:41:34.873Z,30.80
2017-05-06T13:44:03.749Z,31.00
2017-05-06T13:46:32.625Z,31.50
2017-05-06T13:49:01.545Z,33.70
2017-05-06T13:51:30.418Z,35.60
2017-05-06T13:53:59.283Z,36.40
2017-05-06T13:56:28.194Z,36.50
2017-05-06T13:58:57.104Z,33.80
2017-05-06T14:01:25.969Z,32.10
2017-05-06T14:03:55.178Z,30.40
2017-05-06T14:06:24.090Z,28.40
2017-05-06T14:08:52.973Z,27.80
2017-05-06T14:11:21.848Z,27.60
2017-05-06T14:13:50.744Z,27.80
2017-05-06T14:16:19.612Z,26.80
2017-05-06T14:18:49.660Z,26.10
2017-05-06T14:21:18.529Z,25.80
2017-05-06T14:23:47.397Z,25.20
2017-05-06T14:26:17.353Z,24.80
2017-05-06T14:28:46.220Z,24.30
2017-05-06T14:31:15.095Z,23.80
2017-05-06T14:33:44.008Z,23.80
2017-05-06T14:36:12.893Z,23.90
2017-05-06T14:38:41.770Z,24.00
2017-05-06T14:41:11.426Z,24.70
2017-05-06T14:43:40.293Z,25.10
2017-05-06T14:46:09.181Z,25.00
2017-05-06T14:51:13.188Z,23.90
2017-05-06T14:53:43.125Z,23.70
2017-05-06T14:56:12.001Z,23.60
2017-05-06T14:58:41.620Z,23.40
2017-05-06T15:01:10.532Z,23.60
2017-05-06T15:03:39.409Z,23.50
2017-05-06T15:06:08.279Z,23.20
2017-05-06T15:08:37.187Z,23.20
2017-05-06T15:11:06.060Z,23.40
2017-05-06T15:13:35.715Z,23.30
2017-05-06T15:16:04.585Z,23.10
2017-05-06T15:18:33.463Z,22.90
2017-05-06T15:21:02.368Z,23.00
2017-05-06T15:23:31.244Z,23.10
2017-05-06T15:26:00.141Z,23.10
2017-05-06T15:28:29.059Z,23.00
2017-05-06T15:30:57.932Z,23.00
2017-05-06T15:33:26.809Z,22.90
2017-05-06T15:35:55.832Z,22.90
2017-05-06T15:38:24.708Z,22.90
2017-05-06T15:40:53.581Z,22.80
2017-05-06T15:43:22.503Z,22.80
2017-05-06T15:45:51.382Z,22.70
2017-05-06T15:48:20.249Z,22.40
2017-05-06T15:50:49.169Z,22.40
2017-05-06T15:53:18.048Z,22.20
2017-05-06T15:55:46.925Z,22.10
2017-05-06T15:58:15.848Z,22.00
2017-05-06T16:00:44.721Z,22.10
2017-05-06T16:03:13.610Z,22.10
2017-05-06T16:05:42.556Z,22.20
2017-05-06T16:08:11.432Z,22.10
2017-05-06T16:10:40.310Z,21.90
2017-05-06T16:13:09.236Z,21.80
2017-05-06T16:15:38.853Z,21.70
2017-05-06T16:18:08.491Z,21.60
2017-05-06T16:20:37.385Z,21.60
2017-05-06T16:23:06.283Z,21.70
2017-05-06T16:25:35.197Z,21.70
2017-05-06T16:28:04.074Z,21.60
2017-05-06T16:30:32.948Z,21.50
2017-05-06T16:33:01.861Z,21.30
2017-05-06T16:35:30.732Z,21.10
2017-05-06T16:37:59.613Z,20.80
2017-05-06T16:40:28.539Z,20.70
2017-05-06T16:42:57.412Z,20.70
2017-05-06T16:45:26.295Z,20.70
2017-05-06T16:47:55.193Z,20.60
2017-05-06T16:50:24.473Z,20.50
2017-05-06T16:52:53.349Z,20.50
2017-05-06T16:55:22.225Z,20.60
2017-05-06T16:57:51.890Z,20.60
2017-05-06T17:00:20.769Z,20.70
2017-05-06T17:02:49.713Z,20.70
2017-05-06T17:05:19.333Z,20.60
2017-05-06T17:07:48.220Z,20.60
2017-05-06T17:10:17.856Z,20.50
2017-05-06T17:12:46.995Z,20.30
2017-05-06T17:15:15.867Z,20.10
2017-05-06T17:17:44.758Z,20.10
2017-05-06T17:20:13.680Z,20.00
2017-05-06T17:22:43.316Z,19.90
2017-05-06T17:25:12.185Z,19.80
2017-05-06T17:27:42.144Z,19.70
2017-05-06T17:30:11.019Z,19.70
2017-05-06T17:32:39.892Z,19.60
2017-05-06T17:35:08.817Z,19.60
2017-05-06T17:37:37.692Z,19.50
2017-05-06T17:40:06.569Z,19.50
2017-05-06T17:42:36.226Z,19.40
2017-05-06T17:45:05.097Z,19.40
2017-05-06T17:47:33.981Z,19.30
2017-05-06T17:50:03.185Z,19.10
2017-05-06T17:52:32.079Z,19.10
2017-05-06T17:55:00.956Z,19.00
2017-05-06T17:57:29.957Z,18.90
2017-05-06T17:59:58.839Z,18.80
2017-05-06T18:02:27.729Z,18.70
2017-05-06T18:04:56.645Z,18.60
2017-05-06T18:07:25.523Z,18.50
2017-05-06T18:09:54.392Z,18.30
2017-05-06T18:12:23.289Z,18.30
2017-05-06T18:14:52.176Z,18.10
2017-05-06T18:17:21.093Z,18.10
2017-05-06T18:19:49.989Z,18.10
2017-05-06T18:22:18.879Z,18.00
2017-05-06T18:24:47.807Z,18.00
2017-05-06T18:27:16.675Z,17.90
2017-05-06T18:29:45.554Z,17.80
2017-05-06T18:32:14.730Z,17.80
2017-05-06T18:34:43.605Z,17.70
2017-05-06T18:37:12.481Z,17.70
2017-05-06T18:39:42.432Z,17.70
2017-05-06T18:42:11.312Z,17.60
2017-05-06T18:44:40.189Z,17.60
2017-05-06T18:47:09.084Z,17.50
2017-05-06T18:49:37.999Z,17.50
2017-05-06T18:52:06.870Z,17.40
2017-05-06T18:54:35.749Z,17.30
2017-05-06T18:57:04.649Z,17.20
2017-05-06T18:59:33.525Z,17.20
2017-05-06T19:02:03.140Z,17.10
2017-05-06T19:04:32.050Z,17.20
2017-05-06T19:07:01.221Z,17.10
2017-05-06T19:09:30.125Z,17.00
2017-05-06T19:11:59.065Z,16.90
2017-05-06T19:14:27.993Z,16.90
2017-05-06T19:16:57.628Z,16.70
2017-05-06T19:19:26.544Z,16.70
2017-05-06T19:21:55.418Z,16.60
2017-05-06T19:24:24.300Z,16.50
2017-05-06T19:26:53.992Z,16.40
2017-05-06T19:29:22.859Z,16.20
2017-05-06T19:31:52.519Z,16.10
2017-05-06T19:34:21.391Z,16.00
2017-05-06T19:36:50.260Z,16.00
2017-05-06T19:39:19.907Z,15.90
2017-05-06T19:41:48.806Z,15.90
2017-05-06T19:44:18.159Z,15.80
2017-05-06T19:46:47.809Z,15.80
2017-05-06T19:49:16.687Z,15.80
2017-05-06T19:51:45.558Z,15.70
2017-05-06T19:54:14.776Z,15.60
2017-05-06T19:56:43.650Z,15.60
2017-05-06T19:59:12.628Z,15.50
2017-05-06T20:01:42.285Z,15.40
2017-05-06T20:04:11.175Z,15.40
2017-05-06T20:06:40.049Z,15.40
2017-05-06T20:09:09.044Z,15.40
2017-05-06T20:11:37.912Z,15.40
2017-05-06T20:14:06.785Z,15.40
2017-05-06T20:16:36.437Z,15.40
2017-05-06T20:19:05.318Z,15.40
2017-05-06T20:21:34.194Z,15.40
2017-05-06T20:24:03.761Z,15.40
2017-05-06T20:26:32.620Z,15.40
2017-05-06T20:29:01.503Z,15.40
2017-05-06T20:31:30.400Z,15.40
2017-05-06T20:33:59.316Z,15.40
2017-05-06T20:36:28.199Z,15.40
2017-05-06T20:38:57.073Z,15.40
2017-05-06T20:41:25.980Z,15.40
2017-05-06T20:43:54.862Z,15.40
2017-05-06T20:46:23.778Z,15.40
2017-05-06T20:48:52.806Z,15.40
2017-05-06T20:51:22.417Z,15.30
2017-05-06T20:53:51.298Z,15.30
2017-05-06T20:56:20.949Z,15.30
2017-05-06T20:58:49.847Z,15.30
2017-05-06T21:01:18.736Z,15.30
2017-05-06T21:03:47.642Z,15.30
2017-05-06T21:06:16.521Z,15.30
2017-05-06T21:08:45.388Z,15.30
2017-05-06T21:11:14.586Z,15.30
2017-05-06T21:13:43.457Z,15.20
2017-05-06T21:16:12.333Z,15.20
2017-05-06T21:18:43.303Z,15.20
2017-05-06T21:21:12.173Z,15.20
2017-05-06T21:23:41.076Z,15.20
2017-05-06T21:26:09.982Z,15.10
2017-05-06T21:28:38.853Z,15.10
2017-05-06T21:31:07.728Z,15.10
2017-05-06T21:33:37.673Z,15.10
2017-05-06T21:36:06.544Z,15.10
2017-05-06T21:38:35.441Z,15.20
2017-05-06T21:41:04.566Z,15.20
2017-05-06T21:43:33.438Z,15.10
2017-05-06T21:46:02.310Z,15.10
2017-05-06T21:48:31.209Z,15.10
2017-05-06T21:51:00.087Z,15.00
2017-05-06T21:53:29.825Z,15.00
2017-05-06T21:55:58.698Z,15.00
2017-05-06T21:58:27.573Z,15.00
2017-05-06T22:00:57.228Z,15.00
2017-05-06T22:03:26.119Z,15.00
2017-05-06T22:05:54.988Z,15.00
2017-05-06T22:08:23.999Z,15.00
2017-05-06T22:10:52.876Z,15.10
2017-05-06T22:13:21.759Z,15.00
2017-05-06T22:15:50.973Z,15.00
2017-05-06T22:18:19.878Z,15.00
2017-05-06T22:20:48.729Z,15.00
2017-05-06T22:23:17.725Z,14.90
2017-05-06T22:25:46.603Z,15.00
2017-05-06T22:28:16.218Z,15.00
2017-05-06T22:30:45.129Z,15.00
2017-05-06T22:33:14.004Z,15.00
2017-05-06T22:35:42.881Z,15.00
2017-05-06T22:38:11.795Z,15.00
2017-05-06T22:40:40.656Z,15.00
2017-05-06T22:43:10.313Z,15.00
2017-05-06T22:45:39.190Z,15.00
2017-05-06T22:48:08.064Z,14.90
2017-05-06T22:50:37.197Z,14.90
2017-05-06T22:53:06.060Z,14.90
2017-05-06T22:55:34.925Z,14.90
2017-05-06T22:58:04.561Z,14.90
2017-05-06T23:00:33.477Z,14.90
2017-05-06T23:03:02.354Z,14.90
2017-05-06T23:05:31.222Z,14.90
2017-05-06T23:08:00.433Z,14.90
2017-05-06T23:10:29.305Z,14.90
2017-05-06T23:12:58.181Z,14.90
2017-05-06T23:15:28.127Z,14.80
2017-05-06T23:17:57.000Z,14.90
2017-05-06T23:20:25.875Z,14.80
2017-05-06T23:22:55.832Z,14.80
2017-05-06T23:25:24.704Z,14.80
2017-05-06T23:27:53.580Z,14.70
2017-05-06T23:30:23.229Z,14.70
2017-05-06T23:32:52.106Z,14.70
2017-05-06T23:35:20.972Z,14.70
2017-05-06T23:37:49.916Z,14.70
2017-05-06T23:40:18.780Z,14.60
2017-05-06T23:42:47.973Z,14.60
2017-05-06T23:45:16.849Z,14.60
2017-05-06T23:47:45.729Z,14.50
2017-05-06T23:50:15.465Z,14.50
2017-05-06T23:52:44.337Z,14.50
2017-05-06T23:55:13.224Z,14.40
2017-05-06T23:57:42.872Z,14.40
